sensor_id;sensor_type;location;lat;lon;timestamp;P1;durP1;ratioP1;P2;durP2;ratioP2
47155;SDS011;32908;52.344;16.858;2022-12-29T00:01:50;11.33;;;6.30;;
47155;SDS011;32908;52.344;16.858;2022-12-29T00:04:18;11.83;;;6.63;;
47155;SDS011;32908;52.344;16.858;2022-12-29T00:06:46;9.63;;;5.03;;
47155;SDS011;32908;52.344;16.858;2022-12-29T00:09:15;7.67;;;4.97;;
47155;SDS011;32908;52.344;16.858;2022-12-29T00:11:43;8.77;;;4.83;;
47155;SDS011;32908;52.344;16.858;2022-12-29T00:14:11;7.50;;;4.87;;
47155;SDS011;32908;52.344;16.858;2022-12-29T00:16:58;8.93;;;5.23;;
47155;SDS011;32908;52.344;16.858;2022-12-29T00:19:26;8.57;;;5.20;;
47155;SDS011;32908;52.344;16.858;2022-12-29T00:22:13;7.17;;;4.63;;
47155;SDS011;32908;52.344;16.858;2022-12-29T00:25:00;12.30;;;5.53;;
47155;SDS011;32908;52.344;16.858;2022-12-29T00:27:46;7.10;;;4.37;;
47155;SDS011;32908;52.344;16.858;2022-12-29T00:30:32;6.87;;;4.27;;
47155;SDS011;32908;52.344;16.858;2022-12-29T00:33:19;6.83;;;4.53;;
47155;SDS011;32908;52.344;16.858;2022-12-29T00:36:07;7.80;;;4.05;;
47155;SDS011;32908;52.344;16.858;2022-12-29T00:38:37;10.10;;;5.10;;
47155;SDS011;32908;52.344;16.858;2022-12-29T00:41:25;8.60;;;4.90;;
47155;SDS011;32908;52.344;16.858;2022-12-29T00:44:12;7.80;;;4.37;;
47155;SDS011;32908;52.344;16.858;2022-12-29T00:46:41;9.63;;;5.10;;
47155;SDS011;32908;52.344;16.858;2022-12-29T00:49:11;9.47;;;5.07;;
47155;SDS011;32908;52.344;16.858;2022-12-29T00:51:58;6.70;;;4.63;;
47155;SDS011;32908;52.344;16.858;2022-12-29T00:54:28;8.90;;;4.77;;
47155;SDS011;32908;52.344;16.858;2022-12-29T00:56:57;9.97;;;4.63;;
47155;SDS011;32908;52.344;16.858;2022-12-29T00:59:25;7.20;;;4.87;;
47155;SDS011;32908;52.344;16.858;2022-12-29T01:01:54;9.20;;;5.23;;
47155;SDS011;32908;52.344;16.858;2022-12-29T01:04:23;7.80;;;5.27;;
47155;SDS011;32908;52.344;16.858;2022-12-29T01:06:51;9.07;;;5.80;;
47155;SDS011;32908;52.344;16.858;2022-12-29T01:09:20;10.90;;;5.67;;
47155;SDS011;32908;52.344;16.858;2022-12-29T01:12:07;9.73;;;5.27;;
47155;SDS011;32908;52.344;16.858;2022-12-29T01:14:35;10.43;;;5.27;;
47155;SDS011;32908;52.344;16.858;2022-12-29T01:17:04;9.97;;;5.43;;
47155;SDS011;32908;52.344;16.858;2022-12-29T01:19:32;8.03;;;5.27;;
47155;SDS011;32908;52.344;16.858;2022-12-29T01:22:01;8.27;;;5.20;;
47155;SDS011;32908;52.344;16.858;2022-12-29T01:24:29;9.87;;;5.47;;
47155;SDS011;32908;52.344;16.858;2022-12-29T01:26:57;7.70;;;5.30;;
47155;SDS011;32908;52.344;16.858;2022-12-29T01:29:25;9.40;;;4.97;;
47155;SDS011;32908;52.344;16.858;2022-12-29T01:31:53;8.90;;;5.10;;
47155;SDS011;32908;52.344;16.858;2022-12-29T01:34:21;8.20;;;5.07;;
47155;SDS011;32908;52.344;16.858;2022-12-29T01:36:49;8.83;;;4.27;;
47155;SDS011;32908;52.344;16.858;2022-12-29T01:39:17;10.70;;;5.23;;
47155;SDS011;32908;52.344;16.858;2022-12-29T01:41:45;9.70;;;4.63;;
47155;SDS011;32908;52.344;16.858;2022-12-29T01:47:06;10.50;;;5.50;;
47155;SDS011;32908;52.344;16.858;2022-12-29T01:49:35;6.93;;;4.43;;
47155;SDS011;32908;52.344;16.858;2022-12-29T01:52:04;8.43;;;4.40;;
47155;SDS011;32908;52.344;16.858;2022-12-29T01:54:34;6.47;;;4.40;;
47155;SDS011;32908;52.344;16.858;2022-12-29T01:57:04;7.63;;;4.50;;
47155;SDS011;32908;52.344;16.858;2022-12-29T01:59:36;7.43;;;4.30;;
47155;SDS011;32908;52.344;16.858;2022-12-29T02:02:06;5.93;;;3.57;;
47155;SDS011;32908;52.344;16.858;2022-12-29T02:04:35;6.00;;;4.07;;
47155;SDS011;32908;52.344;16.858;2022-12-29T02:07:11;5.90;;;3.97;;
47155;SDS011;32908;52.344;16.858;2022-12-29T02:09:42;9.03;;;4.27;;
47155;SDS011;32908;52.344;16.858;2022-12-29T02:12:10;5.87;;;3.63;;
47155;SDS011;32908;52.344;16.858;2022-12-29T02:14:38;7.17;;;4.33;;
47155;SDS011;32908;52.344;16.858;2022-12-29T02:17:08;6.10;;;3.70;;
47155;SDS011;32908;52.344;16.858;2022-12-29T02:19:50;6.10;;;3.70;;
47155;SDS011;32908;52.344;16.858;2022-12-29T02:22:45;5.80;;;3.53;;
47155;SDS011;32908;52.344;16.858;2022-12-29T02:25:32;6.70;;;3.53;;
47155;SDS011;32908;52.344;16.858;2022-12-29T02:28:16;6.00;;;3.70;;
47155;SDS011;32908;52.344;16.858;2022-12-29T02:31:05;5.63;;;3.80;;
47155;SDS011;32908;52.344;16.858;2022-12-29T02:33:41;6.07;;;3.27;;
47155;SDS011;32908;52.344;16.858;2022-12-29T02:36:15;8.63;;;4.22;;
47155;SDS011;32908;52.344;16.858;2022-12-29T02:38:56;4.33;;;3.13;;
47155;SDS011;32908;52.344;16.858;2022-12-29T02:41:31;5.97;;;3.23;;
47155;SDS011;32908;52.344;16.858;2022-12-29T02:44:03;5.40;;;3.63;;
47155;SDS011;32908;52.344;16.858;2022-12-29T02:46:35;7.47;;;3.90;;
47155;SDS011;32908;52.344;16.858;2022-12-29T02:49:06;6.33;;;3.83;;
47155;SDS011;32908;52.344;16.858;2022-12-29T02:51:39;6.17;;;3.83;;
47155;SDS011;32908;52.344;16.858;2022-12-29T02:54:12;6.63;;;4.30;;
47155;SDS011;32908;52.344;16.858;2022-12-29T02:56:58;6.47;;;4.03;;
47155;SDS011;32908;52.344;16.858;2022-12-29T02:59:26;5.40;;;3.97;;
47155;SDS011;32908;52.344;16.858;2022-12-29T03:02:05;5.37;;;3.50;;
47155;SDS011;32908;52.344;16.858;2022-12-29T03:04:46;6.07;;;3.57;;
47155;SDS011;32908;52.344;16.858;2022-12-29T03:07:23;7.27;;;3.93;;
47155;SDS011;32908;52.344;16.858;2022-12-29T03:09:55;7.60;;;3.70;;
47155;SDS011;32908;52.344;16.858;2022-12-29T03:12:28;4.67;;;3.33;;
47155;SDS011;32908;52.344;16.858;2022-12-29T03:15:18;5.77;;;3.50;;
47155;SDS011;32908;52.344;16.858;2022-12-29T03:18:10;5.57;;;3.30;;
47155;SDS011;32908;52.344;16.858;2022-12-29T03:20:43;5.10;;;2.67;;
47155;SDS011;32908;52.344;16.858;2022-12-29T03:23:14;5.87;;;3.40;;
47155;SDS011;32908;52.344;16.858;2022-12-29T03:25:44;6.93;;;3.47;;
47155;SDS011;32908;52.344;16.858;2022-12-29T03:28:15;7.43;;;3.77;;
47155;SDS011;32908;52.344;16.858;2022-12-29T03:30:45;6.47;;;3.30;;
47155;SDS011;32908;52.344;16.858;2022-12-29T03:33:15;4.93;;;2.70;;
47155;SDS011;32908;52.344;16.858;2022-12-29T03:35:45;3.80;;;3.03;;
47155;SDS011;32908;52.344;16.858;2022-12-29T03:38:16;5.10;;;3.23;;
47155;SDS011;32908;52.344;16.858;2022-12-29T03:40:47;6.90;;;2.90;;
47155;SDS011;32908;52.344;16.858;2022-12-29T03:43:17;5.73;;;3.10;;
47155;SDS011;32908;52.344;16.858;2022-12-29T03:45:45;4.67;;;2.90;;
47155;SDS011;32908;52.344;16.858;2022-12-29T03:48:13;4.87;;;2.70;;
47155;SDS011;32908;52.344;16.858;2022-12-29T03:50:41;4.40;;;2.57;;
47155;SDS011;32908;52.344;16.858;2022-12-29T03:53:10;4.03;;;3.00;;
47155;SDS011;32908;52.344;16.858;2022-12-29T03:55:38;4.70;;;2.67;;
47155;SDS011;32908;52.344;16.858;2022-12-29T03:58:06;4.33;;;2.63;;
47155;SDS011;32908;52.344;16.858;2022-12-29T04:00:34;4.43;;;3.00;;
47155;SDS011;32908;52.344;16.858;2022-12-29T04:03:03;4.93;;;2.67;;
47155;SDS011;32908;52.344;16.858;2022-12-29T04:05:31;4.13;;;3.07;;
47155;SDS011;32908;52.344;16.858;2022-12-29T04:07:59;4.23;;;3.17;;
47155;SDS011;32908;52.344;16.858;2022-12-29T04:10:27;3.77;;;2.77;;
47155;SDS011;32908;52.344;16.858;2022-12-29T04:12:55;5.13;;;2.50;;
47155;SDS011;32908;52.344;16.858;2022-12-29T04:15:23;3.50;;;2.60;;
47155;SDS011;32908;52.344;16.858;2022-12-29T04:17:52;4.47;;;2.90;;
47155;SDS011;32908;52.344;16.858;2022-12-29T04:20:20;4.43;;;2.73;;
47155;SDS011;32908;52.344;16.858;2022-12-29T04:23:22;3.97;;;2.67;;
47155;SDS011;32908;52.344;16.858;2022-12-29T04:25:50;6.60;;;3.30;;
47155;SDS011;32908;52.344;16.858;2022-12-29T04:28:18;3.60;;;2.60;;
47155;SDS011;32908;52.344;16.858;2022-12-29T04:30:46;4.93;;;2.60;;
47155;SDS011;32908;52.344;16.858;2022-12-29T04:33:14;4.73;;;2.80;;
47155;SDS011;32908;52.344;16.858;2022-12-29T04:35:42;3.33;;;2.50;;
47155;SDS011;32908;52.344;16.858;2022-12-29T04:38:11;4.63;;;2.63;;
47155;SDS011;32908;52.344;16.858;2022-12-29T04:40:39;3.73;;;2.47;;
47155;SDS011;32908;52.344;16.858;2022-12-29T04:43:08;4.13;;;2.50;;
47155;SDS011;32908;52.344;16.858;2022-12-29T04:45:36;4.40;;;2.53;;
47155;SDS011;32908;52.344;16.858;2022-12-29T04:48:05;3.10;;;2.07;;
47155;SDS011;32908;52.344;16.858;2022-12-29T04:50:34;3.93;;;2.57;;
47155;SDS011;32908;52.344;16.858;2022-12-29T04:53:02;4.77;;;2.80;;
47155;SDS011;32908;52.344;16.858;2022-12-29T04:55:30;4.07;;;2.50;;
47155;SDS011;32908;52.344;16.858;2022-12-29T04:57:58;5.70;;;2.90;;
47155;SDS011;32908;52.344;16.858;2022-12-29T05:00:26;4.93;;;2.90;;
47155;SDS011;32908;52.344;16.858;2022-12-29T05:02:55;6.40;;;3.07;;
47155;SDS011;32908;52.344;16.858;2022-12-29T05:05:23;4.30;;;2.57;;
47155;SDS011;32908;52.344;16.858;2022-12-29T05:07:51;3.97;;;2.50;;
47155;SDS011;32908;52.344;16.858;2022-12-29T05:10:19;3.43;;;2.10;;
47155;SDS011;32908;52.344;16.858;2022-12-29T05:12:47;4.33;;;2.40;;
47155;SDS011;32908;52.344;16.858;2022-12-29T05:15:15;3.27;;;2.30;;
47155;SDS011;32908;52.344;16.858;2022-12-29T05:17:43;6.53;;;3.40;;
47155;SDS011;32908;52.344;16.858;2022-12-29T05:20:11;8.00;;;2.90;;
47155;SDS011;32908;52.344;16.858;2022-12-29T05:22:39;4.70;;;2.97;;
47155;SDS011;32908;52.344;16.858;2022-12-29T05:25:08;5.50;;;3.13;;
47155;SDS011;32908;52.344;16.858;2022-12-29T05:27:36;5.50;;;3.60;;
47155;SDS011;32908;52.344;16.858;2022-12-29T05:30:05;7.70;;;3.37;;
47155;SDS011;32908;52.344;16.858;2022-12-29T05:32:35;6.23;;;3.30;;
47155;SDS011;32908;52.344;16.858;2022-12-29T05:35:03;4.80;;;2.67;;
47155;SDS011;32908;52.344;16.858;2022-12-29T05:37:33;4.37;;;2.93;;
47155;SDS011;32908;52.344;16.858;2022-12-29T05:40:01;5.13;;;2.80;;
47155;SDS011;32908;52.344;16.858;2022-12-29T05:42:29;5.67;;;3.03;;
47155;SDS011;32908;52.344;16.858;2022-12-29T05:44:58;4.53;;;2.90;;
47155;SDS011;32908;52.344;16.858;2022-12-29T05:47:26;5.17;;;3.10;;
47155;SDS011;32908;52.344;16.858;2022-12-29T05:49:54;4.87;;;2.60;;
47155;SDS011;32908;52.344;16.858;2022-12-29T05:52:22;5.30;;;3.37;;
47155;SDS011;32908;52.344;16.858;2022-12-29T05:54:50;4.57;;;2.87;;
47155;SDS011;32908;52.344;16.858;2022-12-29T05:57:18;3.80;;;2.50;;
47155;SDS011;32908;52.344;16.858;2022-12-29T05:59:46;4.43;;;2.87;;
47155;SDS011;32908;52.344;16.858;2022-12-29T06:02:14;4.37;;;2.67;;
47155;SDS011;32908;52.344;16.858;2022-12-29T06:04:43;5.77;;;2.93;;
47155;SDS011;32908;52.344;16.858;2022-12-29T06:07:11;3.80;;;2.80;;
47155;SDS011;32908;52.344;16.858;2022-12-29T06:09:39;5.87;;;2.47;;
47155;SDS011;32908;52.344;16.858;2022-12-29T06:12:07;3.60;;;2.67;;
47155;SDS011;32908;52.344;16.858;2022-12-29T06:14:35;5.30;;;2.80;;
47155;SDS011;32908;52.344;16.858;2022-12-29T06:17:03;4.83;;;2.73;;
47155;SDS011;32908;52.344;16.858;2022-12-29T06:19:31;3.83;;;2.10;;
47155;SDS011;32908;52.344;16.858;2022-12-29T06:22:00;4.23;;;2.43;;
47155;SDS011;32908;52.344;16.858;2022-12-29T06:24:28;3.87;;;2.30;;
47155;SDS011;32908;52.344;16.858;2022-12-29T06:26:57;3.97;;;2.40;;
47155;SDS011;32908;52.344;16.858;2022-12-29T06:29:25;4.90;;;2.53;;
47155;SDS011;32908;52.344;16.858;2022-12-29T06:31:53;5.13;;;3.23;;
47155;SDS011;32908;52.344;16.858;2022-12-29T06:34:24;5.05;;;2.65;;
47155;SDS011;32908;52.344;16.858;2022-12-29T06:36:52;8.23;;;3.93;;
47155;SDS011;32908;52.344;16.858;2022-12-29T06:39:20;4.17;;;2.93;;
47155;SDS011;32908;52.344;16.858;2022-12-29T06:41:49;4.20;;;2.67;;
47155;SDS011;32908;52.344;16.858;2022-12-29T06:44:19;4.93;;;2.60;;
47155;SDS011;32908;52.344;16.858;2022-12-29T06:46:48;5.10;;;2.50;;
47155;SDS011;32908;52.344;16.858;2022-12-29T06:49:16;3.83;;;2.50;;
47155;SDS011;32908;52.344;16.858;2022-12-29T06:51:45;4.00;;;2.60;;
47155;SDS011;32908;52.344;16.858;2022-12-29T06:54:13;4.60;;;2.53;;
47155;SDS011;32908;52.344;16.858;2022-12-29T06:56:41;6.33;;;3.40;;
47155;SDS011;32908;52.344;16.858;2022-12-29T06:59:09;5.17;;;2.87;;
47155;SDS011;32908;52.344;16.858;2022-12-29T07:01:37;4.17;;;2.50;;
47155;SDS011;32908;52.344;16.858;2022-12-29T07:04:05;4.83;;;3.10;;
47155;SDS011;32908;52.344;16.858;2022-12-29T07:06:33;3.77;;;2.00;;
47155;SDS011;32908;52.344;16.858;2022-12-29T07:09:02;4.27;;;2.77;;
47155;SDS011;32908;52.344;16.858;2022-12-29T07:11:30;5.20;;;2.73;;
47155;SDS011;32908;52.344;16.858;2022-12-29T07:13:59;4.27;;;2.60;;
47155;SDS011;32908;52.344;16.858;2022-12-29T07:16:27;3.67;;;2.57;;
47155;SDS011;32908;52.344;16.858;2022-12-29T07:18:56;5.27;;;3.03;;
47155;SDS011;32908;52.344;16.858;2022-12-29T07:21:25;4.10;;;2.40;;
47155;SDS011;32908;52.344;16.858;2022-12-29T07:23:54;5.93;;;3.00;;
47155;SDS011;32908;52.344;16.858;2022-12-29T07:26:22;4.47;;;2.70;;
47155;SDS011;32908;52.344;16.858;2022-12-29T07:28:50;5.33;;;2.80;;
47155;SDS011;32908;52.344;16.858;2022-12-29T07:31:19;4.10;;;2.70;;
47155;SDS011;32908;52.344;16.858;2022-12-29T07:33:48;4.77;;;2.90;;
47155;SDS011;32908;52.344;16.858;2022-12-29T07:36:16;4.27;;;2.63;;
47155;SDS011;32908;52.344;16.858;2022-12-29T07:38:44;6.87;;;3.33;;
47155;SDS011;32908;52.344;16.858;2022-12-29T07:41:12;5.70;;;3.05;;
47155;SDS011;32908;52.344;16.858;2022-12-29T07:43:40;4.00;;;2.77;;
47155;SDS011;32908;52.344;16.858;2022-12-29T07:46:08;6.53;;;3.83;;
47155;SDS011;32908;52.344;16.858;2022-12-29T07:48:37;7.57;;;3.67;;
47155;SDS011;32908;52.344;16.858;2022-12-29T07:51:05;6.53;;;3.20;;
47155;SDS011;32908;52.344;16.858;2022-12-29T07:53:33;6.90;;;3.73;;
47155;SDS011;32908;52.344;16.858;2022-12-29T07:56:01;7.33;;;3.30;;
47155;SDS011;32908;52.344;16.858;2022-12-29T07:58:30;5.90;;;2.97;;
47155;SDS011;32908;52.344;16.858;2022-12-29T08:00:58;6.13;;;3.27;;
47155;SDS011;32908;52.344;16.858;2022-12-29T08:03:26;6.13;;;3.30;;
47155;SDS011;32908;52.344;16.858;2022-12-29T08:05:55;9.63;;;4.60;;
47155;SDS011;32908;52.344;16.858;2022-12-29T08:08:24;9.63;;;5.93;;
47155;SDS011;32908;52.344;16.858;2022-12-29T08:10:52;11.90;;;6.00;;
47155;SDS011;32908;52.344;16.858;2022-12-29T08:13:20;8.53;;;4.90;;
47155;SDS011;32908;52.344;16.858;2022-12-29T08:15:48;4.37;;;3.37;;
47155;SDS011;32908;52.344;16.858;2022-12-29T08:18:16;4.93;;;2.93;;
47155;SDS011;32908;52.344;16.858;2022-12-29T08:20:44;5.30;;;3.07;;
47155;SDS011;32908;52.344;16.858;2022-12-29T08:23:12;4.57;;;3.30;;
47155;SDS011;32908;52.344;16.858;2022-12-29T08:25:40;5.20;;;3.20;;
47155;SDS011;32908;52.344;16.858;2022-12-29T08:28:08;4.63;;;3.20;;
47155;SDS011;32908;52.344;16.858;2022-12-29T08:30:36;4.57;;;3.10;;
47155;SDS011;32908;52.344;16.858;2022-12-29T08:33:05;3.73;;;2.90;;
47155;SDS011;32908;52.344;16.858;2022-12-29T08:35:33;4.70;;;3.10;;
47155;SDS011;32908;52.344;16.858;2022-12-29T08:38:01;5.63;;;3.03;;
47155;SDS011;32908;52.344;16.858;2022-12-29T08:40:29;6.43;;;3.20;;
47155;SDS011;32908;52.344;16.858;2022-12-29T08:42:57;5.53;;;3.10;;
47155;SDS011;32908;52.344;16.858;2022-12-29T08:45:25;11.10;;;4.33;;
47155;SDS011;32908;52.344;16.858;2022-12-29T08:47:53;26.13;;;11.40;;
47155;SDS011;32908;52.344;16.858;2022-12-29T08:50:22;22.30;;;10.80;;
47155;SDS011;32908;52.344;16.858;2022-12-29T08:52:50;15.90;;;8.40;;
47155;SDS011;32908;52.344;16.858;2022-12-29T08:55:18;7.53;;;5.07;;
47155;SDS011;32908;52.344;16.858;2022-12-29T08:57:46;8.83;;;4.70;;
47155;SDS011;32908;52.344;16.858;2022-12-29T09:00:14;9.20;;;4.20;;
47155;SDS011;32908;52.344;16.858;2022-12-29T09:02:43;5.87;;;3.70;;
47155;SDS011;32908;52.344;16.858;2022-12-29T09:05:11;7.27;;;3.90;;
47155;SDS011;32908;52.344;16.858;2022-12-29T09:07:39;6.00;;;3.80;;
47155;SDS011;32908;52.344;16.858;2022-12-29T09:10:07;7.10;;;3.60;;
47155;SDS011;32908;52.344;16.858;2022-12-29T09:12:35;6.00;;;3.77;;
47155;SDS011;32908;52.344;16.858;2022-12-29T09:15:04;6.93;;;3.67;;
47155;SDS011;32908;52.344;16.858;2022-12-29T09:17:34;7.77;;;4.13;;
47155;SDS011;32908;52.344;16.858;2022-12-29T09:20:10;10.77;;;6.03;;
47155;SDS011;32908;52.344;16.858;2022-12-29T09:22:38;15.03;;;6.40;;
47155;SDS011;32908;52.344;16.858;2022-12-29T09:25:07;7.23;;;4.80;;
47155;SDS011;32908;52.344;16.858;2022-12-29T09:27:36;7.23;;;4.70;;
47155;SDS011;32908;52.344;16.858;2022-12-29T09:30:07;7.47;;;3.77;;
47155;SDS011;32908;52.344;16.858;2022-12-29T09:32:37;7.27;;;3.90;;
47155;SDS011;32908;52.344;16.858;2022-12-29T09:35:05;8.50;;;4.20;;
47155;SDS011;32908;52.344;16.858;2022-12-29T09:37:34;5.10;;;3.23;;
47155;SDS011;32908;52.344;16.858;2022-12-29T09:40:03;4.67;;;3.10;;
47155;SDS011;32908;52.344;16.858;2022-12-29T09:42:35;7.83;;;3.37;;
47155;SDS011;32908;52.344;16.858;2022-12-29T09:45:10;4.90;;;2.90;;
47155;SDS011;32908;52.344;16.858;2022-12-29T09:47:41;5.00;;;3.67;;
47155;SDS011;32908;52.344;16.858;2022-12-29T09:50:12;4.60;;;3.23;;
47155;SDS011;32908;52.344;16.858;2022-12-29T09:52:44;7.70;;;3.77;;
47155;SDS011;32908;52.344;16.858;2022-12-29T09:55:15;6.03;;;3.73;;
47155;SDS011;32908;52.344;16.858;2022-12-29T09:57:45;6.97;;;4.07;;
47155;SDS011;32908;52.344;16.858;2022-12-29T10:00:16;6.23;;;4.10;;
47155;SDS011;32908;52.344;16.858;2022-12-29T10:02:48;6.47;;;4.03;;
47155;SDS011;32908;52.344;16.858;2022-12-29T10:05:30;6.60;;;3.30;;
47155;SDS011;32908;52.344;16.858;2022-12-29T10:08:16;5.13;;;3.53;;
47155;SDS011;32908;52.344;16.858;2022-12-29T10:10:54;6.70;;;3.80;;
47155;SDS011;32908;52.344;16.858;2022-12-29T10:13:29;6.00;;;3.70;;
47155;SDS011;32908;52.344;16.858;2022-12-29T10:16:04;5.77;;;3.37;;
47155;SDS011;32908;52.344;16.858;2022-12-29T10:21:33;6.23;;;4.00;;
47155;SDS011;32908;52.344;16.858;2022-12-29T10:24:07;9.13;;;3.27;;
47155;SDS011;32908;52.344;16.858;2022-12-29T10:26:39;5.43;;;3.30;;
47155;SDS011;32908;52.344;16.858;2022-12-29T10:29:11;6.23;;;3.23;;
47155;SDS011;32908;52.344;16.858;2022-12-29T10:31:43;5.57;;;3.23;;
47155;SDS011;32908;52.344;16.858;2022-12-29T10:34:15;5.93;;;2.77;;
47155;SDS011;32908;52.344;16.858;2022-12-29T10:36:48;6.03;;;2.90;;
47155;SDS011;32908;52.344;16.858;2022-12-29T10:39:20;5.60;;;2.97;;
47155;SDS011;32908;52.344;16.858;2022-12-29T10:41:54;5.23;;;2.80;;
47155;SDS011;32908;52.344;16.858;2022-12-29T10:44:26;6.50;;;2.87;;
47155;SDS011;32908;52.344;16.858;2022-12-29T10:46:58;6.10;;;3.80;;
47155;SDS011;32908;52.344;16.858;2022-12-29T10:49:28;6.37;;;3.13;;
47155;SDS011;32908;52.344;16.858;2022-12-29T10:51:59;6.70;;;3.23;;
47155;SDS011;32908;52.344;16.858;2022-12-29T10:54:31;4.80;;;2.93;;
47155;SDS011;32908;52.344;16.858;2022-12-29T10:57:07;4.60;;;2.90;;
47155;SDS011;32908;52.344;16.858;2022-12-29T10:59:37;6.07;;;3.27;;
47155;SDS011;32908;52.344;16.858;2022-12-29T11:02:14;5.73;;;3.47;;
47155;SDS011;32908;52.344;16.858;2022-12-29T11:04:50;8.43;;;3.50;;
47155;SDS011;32908;52.344;16.858;2022-12-29T11:07:21;4.43;;;3.13;;
47155;SDS011;32908;52.344;16.858;2022-12-29T11:09:50;4.63;;;3.13;;
47155;SDS011;32908;52.344;16.858;2022-12-29T11:12:19;4.27;;;2.90;;
47155;SDS011;32908;52.344;16.858;2022-12-29T11:14:48;6.40;;;3.60;;
47155;SDS011;32908;52.344;16.858;2022-12-29T11:17:29;5.73;;;3.07;;
47155;SDS011;32908;52.344;16.858;2022-12-29T11:19:57;4.73;;;2.60;;
47155;SDS011;32908;52.344;16.858;2022-12-29T11:22:27;6.90;;;3.60;;
47155;SDS011;32908;52.344;16.858;2022-12-29T11:25:04;5.20;;;3.20;;
47155;SDS011;32908;52.344;16.858;2022-12-29T11:27:33;8.63;;;3.17;;
47155;SDS011;32908;52.344;16.858;2022-12-29T11:30:02;7.10;;;3.73;;
47155;SDS011;32908;52.344;16.858;2022-12-29T11:32:39;7.17;;;3.30;;
47155;SDS011;32908;52.344;16.858;2022-12-29T11:35:29;5.60;;;3.20;;
47155;SDS011;32908;52.344;16.858;2022-12-29T11:37:58;4.33;;;3.10;;
47155;SDS011;32908;52.344;16.858;2022-12-29T11:40:26;5.90;;;3.10;;
47155;SDS011;32908;52.344;16.858;2022-12-29T11:42:55;5.63;;;3.30;;
47155;SDS011;32908;52.344;16.858;2022-12-29T11:45:24;6.57;;;3.57;;
47155;SDS011;32908;52.344;16.858;2022-12-29T11:47:54;4.87;;;3.17;;
47155;SDS011;32908;52.344;16.858;2022-12-29T11:50:23;5.93;;;3.00;;
47155;SDS011;32908;52.344;16.858;2022-12-29T11:52:57;6.20;;;3.10;;
47155;SDS011;32908;52.344;16.858;2022-12-29T11:55:28;5.57;;;2.80;;
47155;SDS011;32908;52.344;16.858;2022-12-29T11:57:57;5.20;;;2.90;;
47155;SDS011;32908;52.344;16.858;2022-12-29T12:00:28;5.30;;;3.50;;
47155;SDS011;32908;52.344;16.858;2022-12-29T12:02:59;4.67;;;2.87;;
47155;SDS011;32908;52.344;16.858;2022-12-29T12:05:30;4.90;;;3.07;;
47155;SDS011;32908;52.344;16.858;2022-12-29T12:08:05;6.27;;;3.30;;
47155;SDS011;32908;52.344;16.858;2022-12-29T12:10:39;5.57;;;2.90;;
47155;SDS011;32908;52.344;16.858;2022-12-29T12:13:22;5.97;;;3.47;;
47155;SDS011;32908;52.344;16.858;2022-12-29T12:15:54;6.10;;;3.10;;
47155;SDS011;32908;52.344;16.858;2022-12-29T12:18:32;4.87;;;3.23;;
47155;SDS011;32908;52.344;16.858;2022-12-29T12:21:09;5.00;;;3.33;;
47155;SDS011;32908;52.344;16.858;2022-12-29T12:23:54;8.03;;;3.30;;
47155;SDS011;32908;52.344;16.858;2022-12-29T12:26:30;6.83;;;3.47;;
47155;SDS011;32908;52.344;16.858;2022-12-29T12:29:04;4.50;;;3.00;;
47155;SDS011;32908;52.344;16.858;2022-12-29T12:31:41;7.00;;;2.83;;
47155;SDS011;32908;52.344;16.858;2022-12-29T12:34:13;6.83;;;3.02;;
47155;SDS011;32908;52.344;16.858;2022-12-29T12:36:47;4.67;;;2.40;;
47155;SDS011;32908;52.344;16.858;2022-12-29T12:39:26;4.27;;;2.60;;
47155;SDS011;32908;52.344;16.858;2022-12-29T12:42:00;3.07;;;2.13;;
47155;SDS011;32908;52.344;16.858;2022-12-29T12:44:35;2.50;;;1.90;;
47155;SDS011;32908;52.344;16.858;2022-12-29T12:50:06;3.10;;;1.80;;
47155;SDS011;32908;52.344;16.858;2022-12-29T12:53:06;3.93;;;2.10;;
47155;SDS011;32908;52.344;16.858;2022-12-29T12:55:56;3.23;;;2.33;;
47155;SDS011;32908;52.344;16.858;2022-12-29T12:58:47;3.10;;;1.90;;
47155;SDS011;32908;52.344;16.858;2022-12-29T13:01:23;3.97;;;2.07;;
47155;SDS011;32908;52.344;16.858;2022-12-29T13:04:02;2.50;;;1.60;;
47155;SDS011;32908;52.344;16.858;2022-12-29T13:06:41;3.40;;;1.90;;
47155;SDS011;32908;52.344;16.858;2022-12-29T13:12:07;3.80;;;1.83;;
47155;SDS011;32908;52.344;16.858;2022-12-29T13:14:47;3.27;;;2.27;;
47155;SDS011;32908;52.344;16.858;2022-12-29T13:17:23;3.37;;;2.03;;
47155;SDS011;32908;52.344;16.858;2022-12-29T13:19:54;4.70;;;2.30;;
47155;SDS011;32908;52.344;16.858;2022-12-29T13:22:29;4.80;;;1.87;;
47155;SDS011;32908;52.344;16.858;2022-12-29T13:25:07;2.97;;;1.77;;
47155;SDS011;32908;52.344;16.858;2022-12-29T13:27:44;2.57;;;2.10;;
47155;SDS011;32908;52.344;16.858;2022-12-29T13:30:16;2.10;;;1.90;;
47155;SDS011;32908;52.344;16.858;2022-12-29T13:32:51;3.13;;;2.00;;
47155;SDS011;32908;52.344;16.858;2022-12-29T13:35:27;4.77;;;2.63;;
47155;SDS011;32908;52.344;16.858;2022-12-29T13:38:07;5.07;;;2.70;;
47155;SDS011;32908;52.344;16.858;2022-12-29T13:40:40;5.43;;;2.50;;
47155;SDS011;32908;52.344;16.858;2022-12-29T13:43:10;5.57;;;2.90;;
47155;SDS011;32908;52.344;16.858;2022-12-29T13:45:40;5.43;;;2.70;;
47155;SDS011;32908;52.344;16.858;2022-12-29T13:48:10;4.73;;;2.23;;
47155;SDS011;32908;52.344;16.858;2022-12-29T13:50:43;2.80;;;2.23;;
47155;SDS011;32908;52.344;16.858;2022-12-29T13:53:15;5.33;;;1.77;;
47155;SDS011;32908;52.344;16.858;2022-12-29T13:55:51;3.07;;;2.30;;
47155;SDS011;32908;52.344;16.858;2022-12-29T13:58:24;3.00;;;2.10;;
47155;SDS011;32908;52.344;16.858;2022-12-29T14:00:57;5.47;;;2.30;;
47155;SDS011;32908;52.344;16.858;2022-12-29T14:03:44;3.93;;;1.90;;
47155;SDS011;32908;52.344;16.858;2022-12-29T14:06:18;3.63;;;2.27;;
47155;SDS011;32908;52.344;16.858;2022-12-29T14:08:49;3.67;;;2.33;;
47155;SDS011;32908;52.344;16.858;2022-12-29T14:11:17;3.80;;;2.70;;
47155;SDS011;32908;52.344;16.858;2022-12-29T14:13:50;3.70;;;2.50;;
47155;SDS011;32908;52.344;16.858;2022-12-29T14:16:29;4.33;;;2.70;;
47155;SDS011;32908;52.344;16.858;2022-12-29T14:19:04;5.17;;;2.87;;
47155;SDS011;32908;52.344;16.858;2022-12-29T14:21:36;4.90;;;2.90;;
47155;SDS011;32908;52.344;16.858;2022-12-29T14:26:55;6.00;;;2.07;;
47155;SDS011;32908;52.344;16.858;2022-12-29T14:38:12;4.67;;;2.90;;
47155;SDS011;32908;52.344;16.858;2022-12-29T14:40:43;4.00;;;2.60;;
47155;SDS011;32908;52.344;16.858;2022-12-29T14:43:12;4.57;;;2.67;;
47155;SDS011;32908;52.344;16.858;2022-12-29T14:45:43;5.63;;;2.90;;
47155;SDS011;32908;52.344;16.858;2022-12-29T14:48:31;4.57;;;2.57;;
47155;SDS011;32908;52.344;16.858;2022-12-29T14:51:02;4.23;;;2.77;;
47155;SDS011;32908;52.344;16.858;2022-12-29T14:53:45;5.47;;;3.43;;
47155;SDS011;32908;52.344;16.858;2022-12-29T14:56:15;7.60;;;3.47;;
47155;SDS011;32908;52.344;16.858;2022-12-29T14:58:47;7.20;;;3.50;;
47155;SDS011;32908;52.344;16.858;2022-12-29T15:01:18;8.70;;;4.00;;
47155;SDS011;32908;52.344;16.858;2022-12-29T15:03:49;11.00;;;4.90;;
47155;SDS011;32908;52.344;16.858;2022-12-29T15:06:18;8.03;;;4.30;;
47155;SDS011;32908;52.344;16.858;2022-12-29T15:08:50;11.33;;;4.30;;
47155;SDS011;32908;52.344;16.858;2022-12-29T15:11:19;8.60;;;3.90;;
47155;SDS011;32908;52.344;16.858;2022-12-29T15:13:48;5.67;;;3.20;;
47155;SDS011;32908;52.344;16.858;2022-12-29T15:16:24;6.07;;;3.17;;
47155;SDS011;32908;52.344;16.858;2022-12-29T15:18:54;6.33;;;3.20;;
47155;SDS011;32908;52.344;16.858;2022-12-29T15:21:23;5.47;;;2.87;;
47155;SDS011;32908;52.344;16.858;2022-12-29T15:23:52;6.47;;;3.43;;